createdAt,value
2022-10-13T00:04:36.332Z,4.80
2022-10-13T00:09:39.539Z,5.30
2022-10-13T00:14:42.747Z,5.40
2022-10-13T00:19:45.819Z,5.60
2022-10-13T00:24:52.955Z,5.40
2022-10-13T00:29:57.195Z,5.90
2022-10-13T00:35:00.903Z,6.90
2022-10-13T00:40:04.933Z,9.70
2022-10-13T00:45:29.953Z,8.40
2022-10-13T00:50:38.386Z,10.90
2022-10-13T00:55:44.484Z,6.50
2022-10-13T01:00:50.559Z,8.40
2022-10-13T01:05:57.456Z,7.40
2022-10-13T01:11:09.239Z,11.30
2022-10-13T01:16:27.908Z,10.40
2022-10-13T01:21:41.358Z,8.70
2022-10-13T01:27:46.109Z,8.40
2022-10-13T01:33:07.646Z,6.30
2022-10-13T01:38:23.049Z,6.50
2022-10-13T01:43:37.003Z,6.00
2022-10-13T01:48:43.024Z,6.30
2022-10-13T01:53:47.923Z,5.70
2022-10-13T01:58:53.549Z,6.90
2022-10-13T02:04:15.538Z,5.40
2022-10-13T02:09:24.589Z,6.10
2022-10-13T02:14:34.702Z,6.70
2022-10-13T02:19:40.453Z,5.00
2022-10-13T02:24:43.835Z,5.60
2022-10-13T02:29:56.281Z,4.00
2022-10-13T02:34:59.981Z,5.10
2022-10-13T02:40:03.597Z,4.60
2022-10-13T02:45:08.347Z,5.20
2022-10-13T02:50:11.756Z,4.30
2022-10-13T02:55:15.065Z,5.10
2022-10-13T03:00:18.279Z,6.40
2022-10-13T03:05:21.481Z,6.20
2022-10-13T03:10:24.691Z,6.60
2022-10-13T03:15:27.899Z,5.40
2022-10-13T03:20:31.110Z,5.10
2022-10-13T03:25:35.106Z,5.30
2022-10-13T03:30:38.240Z,3.90
2022-10-13T03:35:41.449Z,4.20
2022-10-13T03:40:44.656Z,4.40
2022-10-13T03:45:58.619Z,4.30
2022-10-13T03:51:10.223Z,3.90
2022-10-13T03:56:17.767Z,4.00
2022-10-13T04:01:25.486Z,4.30
2022-10-13T04:06:29.678Z,3.90
2022-10-13T04:11:33.193Z,4.70
2022-10-13T04:21:41.966Z,4.30
2022-10-13T04:26:46.610Z,4.00
2022-10-13T04:31:50.635Z,4.40
2022-10-13T04:36:54.047Z,4.50
2022-10-13T04:41:57.258Z,4.60
2022-10-13T04:47:01.618Z,4.80
2022-10-13T04:52:05.006Z,5.00
2022-10-13T04:57:08.215Z,5.60
2022-10-13T05:02:11.628Z,5.10
2022-10-13T05:07:18.755Z,4.80
2022-10-13T05:12:23.458Z,4.90
2022-10-13T05:17:34.144Z,5.70
2022-10-13T05:22:38.385Z,6.40
2022-10-13T05:27:41.594Z,6.40
2022-10-13T05:32:44.802Z,5.90
2022-10-13T05:37:48.011Z,6.00
2022-10-13T05:42:51.731Z,7.80
2022-10-13T05:47:54.939Z,6.60
2022-10-13T05:52:58.251Z,8.30
2022-10-13T05:58:02.516Z,6.60
2022-10-13T06:08:16.274Z,6.60
2022-10-13T06:13:19.481Z,6.90
2022-10-13T06:18:22.791Z,7.80
2022-10-13T06:23:25.900Z,6.30
2022-10-13T06:28:29.169Z,6.30
2022-10-13T06:33:32.908Z,6.70
2022-10-13T06:43:40.572Z,7.60
2022-10-13T06:53:47.094Z,8.00
2022-10-13T06:58:50.302Z,7.10
2022-10-13T07:03:53.509Z,9.70
2022-10-13T07:08:56.615Z,7.90
2022-10-13T07:19:08.257Z,7.80
2022-10-13T07:24:12.283Z,8.30
2022-10-13T07:29:15.490Z,9.10
2022-10-13T07:34:18.705Z,4.90
2022-10-13T07:39:21.805Z,4.40
2022-10-13T07:44:25.325Z,3.90
2022-10-13T07:49:28.530Z,4.00
2022-10-13T07:54:31.839Z,3.60
2022-10-13T07:59:35.354Z,3.60
2022-10-13T08:04:39.354Z,4.80
2022-10-13T08:14:46.311Z,3.30
2022-10-13T08:19:51.976Z,9.20
2022-10-13T08:24:56.212Z,4.00
2022-10-13T08:29:59.418Z,3.30
2022-10-13T08:35:02.833Z,3.00
2022-10-13T08:40:07.268Z,3.60
2022-10-13T08:50:44.825Z,3.30
2022-10-13T08:55:51.078Z,2.90
2022-10-13T09:01:09.367Z,3.50
2022-10-13T09:06:17.786Z,3.10
2022-10-13T09:11:21.314Z,2.30
2022-10-13T09:16:40.382Z,3.40
2022-10-13T09:21:43.797Z,2.20
2022-10-13T09:26:50.177Z,2.30
2022-10-13T09:32:16.639Z,2.70
2022-10-13T09:37:24.955Z,3.10
2022-10-13T09:42:30.570Z,4.00
2022-10-13T09:47:33.937Z,2.10
2022-10-13T09:52:37.355Z,2.80
2022-10-13T09:57:48.544Z,2.70
2022-10-13T10:03:13.274Z,3.20
2022-10-13T10:08:28.773Z,2.70
2022-10-13T10:13:37.317Z,4.40
2022-10-13T10:18:48.893Z,2.60
2022-10-13T10:24:00.807Z,3.30
2022-10-13T10:29:36.264Z,3.70
2022-10-13T10:34:50.847Z,3.50
2022-10-13T10:40:23.340Z,3.40
2022-10-13T10:45:28.775Z,3.50
2022-10-13T10:50:34.591Z,4.10
2022-10-13T10:56:03.485Z,3.40
2022-10-13T11:01:14.189Z,3.70
2022-10-13T11:06:17.373Z,2.50
2022-10-13T11:11:25.038Z,2.70
2022-10-13T11:17:00.858Z,3.20
2022-10-13T11:22:04.068Z,3.00
2022-10-13T11:27:16.287Z,4.80
2022-10-13T11:32:31.475Z,3.30
2022-10-13T11:38:06.651Z,3.80
2022-10-13T11:43:32.270Z,3.90
2022-10-13T11:49:30.875Z,3.60
2022-10-13T11:54:55.384Z,4.20
2022-10-13T11:59:58.898Z,3.50
2022-10-13T12:05:19.821Z,3.70
2022-10-13T12:10:32.389Z,3.70
2022-10-13T12:15:43.501Z,3.70
2022-10-13T12:20:53.407Z,2.80
2022-10-13T12:25:58.388Z,4.00
2022-10-13T12:31:01.571Z,4.10
2022-10-13T12:36:19.111Z,3.00
2022-10-13T12:41:29.029Z,3.70
2022-10-13T12:46:39.358Z,5.20
2022-10-13T12:51:44.994Z,3.70
2022-10-13T12:56:52.403Z,3.50
2022-10-13T13:02:01.807Z,3.50
2022-10-13T13:07:07.117Z,3.80
2022-10-13T13:12:13.417Z,3.80
2022-10-13T13:17:33.009Z,4.00
2022-10-13T13:22:42.787Z,3.20
2022-10-13T13:27:45.977Z,4.90
2022-10-13T13:32:49.802Z,4.00
2022-10-13T13:37:53.529Z,3.90
2022-10-13T13:42:56.731Z,4.00
2022-10-13T13:48:01.146Z,3.90
2022-10-13T13:53:05.403Z,4.10
2022-10-13T13:58:10.396Z,4.10
2022-10-13T14:03:17.143Z,4.00
2022-10-13T14:08:22.501Z,3.50
2022-10-13T14:13:25.604Z,3.80
2022-10-13T14:18:29.227Z,4.10
2022-10-13T14:23:32.535Z,3.80
2022-10-13T14:28:35.703Z,4.30
2022-10-13T14:33:39.359Z,3.70
2022-10-13T14:38:42.466Z,3.80
2022-10-13T14:43:45.777Z,4.70
2022-10-13T14:48:49.602Z,7.10
2022-10-13T14:53:52.708Z,4.40
2022-10-13T14:58:58.066Z,5.80
2022-10-13T15:04:02.094Z,6.00
2022-10-13T15:09:05.941Z,5.80
2022-10-13T15:14:10.048Z,4.10
2022-10-13T15:19:13.460Z,6.10
2022-10-13T15:24:16.564Z,4.60
2022-10-13T15:29:19.670Z,6.50
2022-10-13T15:34:22.777Z,4.70
2022-10-13T15:39:25.882Z,6.50
2022-10-13T15:44:40.284Z,4.40
2022-10-13T15:49:52.782Z,8.80
2022-10-13T15:54:57.114Z,6.60
2022-10-13T16:00:00.334Z,4.00
2022-10-13T16:05:05.699Z,8.10
2022-10-13T16:10:12.599Z,6.60
2022-10-13T16:15:20.307Z,5.50
2022-10-13T16:20:23.396Z,4.90
2022-10-13T16:25:28.346Z,4.80
2022-10-13T16:30:32.299Z,4.40
2022-10-13T16:35:35.799Z,4.80
2022-10-13T16:40:42.194Z,5.30
2022-10-13T16:46:00.108Z,5.10
2022-10-13T16:51:10.859Z,5.70
2022-10-13T16:56:14.735Z,10.40
2022-10-13T17:01:18.947Z,5.90
2022-10-13T17:06:25.019Z,5.20
2022-10-13T17:11:30.669Z,5.30
2022-10-13T17:16:34.630Z,7.00
2022-10-13T17:21:37.942Z,7.10
2022-10-13T17:26:41.153Z,6.10
2022-10-13T17:31:44.563Z,6.60
2022-10-13T17:36:47.672Z,7.90
2022-10-13T17:41:51.082Z,5.70
2022-10-13T17:46:54.290Z,6.40
2022-10-13T17:51:57.600Z,4.80
2022-10-13T17:57:01.217Z,5.70
2022-10-13T18:02:04.569Z,4.50
2022-10-13T18:07:09.890Z,5.50
2022-10-13T18:12:13.916Z,10.40
2022-10-13T22:34:31.978Z,7.70
2022-10-13T22:39:35.184Z,9.70
2022-10-13T22:44:38.189Z,7.20
2022-10-13T22:49:41.296Z,6.30
2022-10-13T22:54:44.606Z,7.50
2022-10-13T22:59:47.817Z,7.50
2022-10-13T23:04:50.818Z,8.20
2022-10-13T23:09:54.128Z,4.80
2022-10-13T23:14:57.029Z,7.10
2022-10-13T23:20:00.348Z,7.80
2022-10-13T23:25:04.065Z,7.40
2022-10-13T23:30:08.191Z,6.90
2022-10-13T23:35:11.201Z,7.00
2022-10-13T23:40:14.299Z,6.20
2022-10-13T23:45:17.507Z,7.20
2022-10-13T23:50:20.613Z,6.10
2022-10-13T23:55:23.823Z,8.10
